Time;durP1;ratioP1;P1;durP2;ratioP2;P2;SDS_P1;SDS_P2;PMS_P1;PMS_P2;Temp;Humidity;BMP_temperature;BMP_pressure;BME280_temperature;BME280_humidity;BME280_pressure;Samples;Min_cycle;Max_cycle;Signal;HPM_P1;HPM_P2
2022/02/09 00:09:01;;;;;;;4.60;2.90;;;;;;;;;;5110859;28;20793;-67
2022/02/09 00:11:31;;;;;;;3.13;2.70;;;9.30;1.00;;;;;;5091482;28;20490;-67
2022/02/09 00:14:05;;;;;;;3.10;2.80;;;9.40;1.00;;;;;;5105079;28;20531;-67
2022/02/09 00:19:13;;;;;;;2.90;2.60;;;9.50;1.00;;;;;;5102850;28;20506;-66
2022/02/09 01:32:54;;;;;;;3.23;2.90;;;;;;;;;;5102964;28;20496;-66
2022/02/09 01:39:48;;;;;;;6.00;3.00;;;9.90;1.00;;;;;;5104913;28;20542;-67
2022/02/09 01:55:49;;;;;;;4.43;3.97;;;9.90;1.00;;;;;;5095044;28;20486;-65
2022/02/09 01:58:15;;;;;;;5.50;4.17;;;9.80;1.00;;;;;;5106282;28;20446;-65
2022/02/09 02:00:41;;;;;;;4.40;3.53;;;9.80;1.00;;;;;;5102965;28;20530;-64
2022/02/09 02:03:06;;;;;;;7.77;3.57;;;9.80;1.00;;;;;;5105820;28;20214;-66
2022/02/09 02:05:35;;;;;;;4.70;3.93;;;;;;;;;;5103736;28;20473;-64
2022/02/09 02:08:02;;;;;;;4.37;3.90;;;9.80;1.00;;;;;;5105433;28;20174;-66
2022/02/09 02:13:56;;;;;;;5.07;3.97;;;9.80;1.00;;;;;;5066869;28;20440;-65
2022/02/09 02:19:03;;;;;;;5.30;4.80;;;;;;;;;;5106626;28;20403;-66
2022/02/09 02:46:04;;;;;;;4.77;4.27;;;10.00;1.00;;;;;;5103058;28;20438;-65
2022/02/09 03:12:20;;;;;;;3.70;3.40;;;10.10;1.00;;;;;;5107531;28;20459;-65
2022/02/09 03:14:57;;;;;;;3.90;3.60;;;10.20;1.00;;;;;;5102492;28;20576;-66
2022/02/09 03:17:32;;;;;;;5.43;4.07;;;10.10;1.00;;;;;;5108860;28;20477;-64
2022/02/09 03:20:04;;;;;;;3.67;3.27;;;10.10;1.00;;;;;;5102055;28;20450;-65
2022/02/09 03:25:20;;;;;;;4.73;4.27;;;10.10;1.00;;;;;;5093187;28;20506;-65
2022/02/09 03:31:07;;;;;;;3.73;3.43;;;10.20;1.00;;;;;;5094023;28;20772;-66
2022/02/09 03:44:32;;;;;;;4.40;4.03;;;10.20;1.00;;;;;;5102861;28;20469;-66
2022/02/09 03:54:39;;;;;;;5.10;4.70;;;10.10;1.00;;;;;;5105373;28;20451;-65
2022/02/09 03:57:22;;;;;;;3.80;3.50;;;10.10;1.00;;;;;;5105547;28;21087;-64
2022/02/09 03:59:47;;;;;;;6.00;4.57;;;10.10;1.00;;;;;;5098587;28;20427;-65
2022/02/09 04:02:13;;;;;;;4.67;4.23;;;;;;;;;;5094651;28;20431;-65
2022/02/09 04:04:39;;;;;;;4.70;3.97;;;10.00;1.00;;;;;;5100529;28;20242;-65
2022/02/09 04:07:05;;;;;;;4.63;4.13;;;10.10;1.00;;;;;;5099852;28;20507;-66
2022/02/09 04:09:33;;;;;;;4.37;4.00;;;10.10;1.00;;;;;;5094690;28;20240;-65
2022/02/09 04:12:12;;;;;;;4.40;3.70;;;;;;;;;;5090572;28;20542;-65
2022/02/09 04:15:01;;;;;;;3.80;3.50;;;10.10;1.00;;;;;;5097889;28;20936;-65
2022/02/09 04:17:35;;;;;;;3.93;3.57;;;10.10;1.00;;;;;;5109701;28;20885;-67
2022/02/09 04:20:21;;;;;;;4.97;4.47;;;10.10;1.00;;;;;;5092887;28;20422;-69
2022/02/09 04:38:46;;;;;;;3.70;3.40;;;10.40;1.00;;;;;;5103981;28;20984;-66
2022/02/09 04:43:53;;;;;;;3.83;3.47;;;10.40;1.00;;;;;;5093685;28;20496;-66
2022/02/09 04:59:22;;;;;;;3.73;3.30;;;10.30;1.00;;;;;;5102638;28;20528;-65
2022/02/09 05:28:10;;;;;;;4.83;3.10;;;10.20;1.00;;;;;;5106065;28;21012;-65
2022/02/09 05:30:36;;;;;;;3.80;3.40;;;10.10;1.00;;;;;;5105589;28;20712;-66
2022/02/09 05:33:02;;;;;;;3.17;2.97;;;;;;;;;;5106676;28;20436;-65
2022/02/09 05:35:27;;;;;;;2.90;2.60;;;10.10;1.00;;;;;;5105338;28;20194;-64
2022/02/09 05:37:55;;;;;;;2.90;2.70;;;10.00;1.00;;;;;;5105337;28;20584;-65
2022/02/09 05:40:21;;;;;;;3.03;2.80;;;;;;;;;;5085673;28;20582;-65
2022/02/09 05:42:47;;;;;;;2.77;2.50;;;10.10;1.00;;;;;;5104639;28;20493;-66
2022/02/09 05:45:14;;;;;;;3.00;2.80;;;;;;;;;;5105652;28;20475;-65
2022/02/09 05:48:11;;;;;;;2.73;2.53;;;10.20;1.00;;;;;;5102964;28;21034;-65
2022/02/09 05:50:36;;;;;;;2.67;2.07;;;10.20;1.00;;;;;;5105378;28;20439;-66
2022/02/09 05:58:12;;;;;;;2.03;1.93;;;10.10;1.00;;;;;;5104987;28;20422;-65
2022/02/09 06:00:41;;;;;;;2.27;2.10;;;;;;;;;;5105656;28;20439;-65
2022/02/09 06:03:07;;;;;;;2.73;2.10;;;;;;;;;;5105334;28;20804;-66
2022/02/09 06:05:33;;;;;;;2.30;2.10;;;;;;;;;;5104380;28;20436;-65
2022/02/09 06:07:59;;;;;;;2.27;2.00;;;10.20;1.00;;;;;;5105057;28;20569;-65
2022/02/09 06:10:30;;;;;;;2.80;2.60;;;;;;;;;;5104658;28;20486;-64
2022/02/09 06:13:12;;;;;;;2.07;1.90;;;10.00;1.00;;;;;;5105046;28;20182;-65
2022/02/09 06:16:03;;;;;;;2.40;2.20;;;;;;;;;;5104548;28;20449;-65
2022/02/09 06:21:13;;;;;;;1.97;1.87;;;10.20;1.00;;;;;;5111886;28;20538;-66
2022/02/09 06:23:39;;;;;;;2.17;1.97;;;;;;;;;;5112252;28;20436;-65
2022/02/09 06:26:05;;;;;;;1.77;1.67;;;10.20;1.00;;;;;;5107033;28;20451;-64
2022/02/09 06:28:31;;;;;;;2.80;2.13;;;10.20;1.00;;;;;;5076172;28;20781;-65
2022/02/09 06:30:59;;;;;;;2.20;2.00;;;10.10;1.00;;;;;;5098803;28;20242;-65
2022/02/09 06:33:25;;;;;;;3.37;1.87;;;10.00;1.00;;;;;;5100587;28;20509;-66
2022/02/09 06:35:54;;;;;;;2.07;1.70;;;10.20;1.00;;;;;;5100946;28;20458;-64
2022/02/09 06:38:20;;;;;;;1.97;1.87;;;;;;;;;;5081900;28;20469;-64
2022/02/09 06:40:51;;;;;;;1.67;1.57;;;10.30;1.00;;;;;;5099303;28;20471;-65
2022/02/09 06:43:17;;;;;;;1.83;1.73;;;;;;;;;;5103524;28;20510;-64
2022/02/09 06:45:43;;;;;;;1.97;1.87;;;;;;;;;;5104097;28;20446;-64
2022/02/09 06:48:14;;;;;;;2.13;1.83;;;10.20;1.00;;;;;;5103744;28;20443;-66
2022/02/09 06:50:45;;;;;;;2.50;2.03;;;;;;;;;;5104008;28;20723;-65
2022/02/09 06:55:44;;;;;;;1.90;1.80;;;;;;;;;;5104528;28;20897;-67
2022/02/09 06:58:18;;;;;;;2.20;2.00;;;10.30;1.00;;;;;;5103488;28;20182;-65
2022/02/09 07:00:44;;;;;;;1.87;1.77;;;;;;;;;;5097872;28;20418;-65
2022/02/09 07:03:09;;;;;;;3.83;2.40;;;10.50;1.00;;;;;;5103521;28;20803;-67
2022/02/09 07:05:35;;;;;;;2.00;1.90;;;10.50;1.00;;;;;;5103502;28;20452;-66
2022/02/09 07:08:01;;;;;;;1.93;1.80;;;;;;;;;;5104331;28;20179;-65
2022/02/09 07:10:26;;;;;;;3.30;1.77;;;10.70;1.00;;;;;;5103089;28;20225;-67
2022/02/09 07:12:52;;;;;;;2.43;1.80;;;;;;;;;;5104183;28;20978;-65
2022/02/09 07:15:27;;;;;;;3.67;2.10;;;;;;;;;;5104119;28;20189;-67
2022/02/09 07:17:53;;;;;;;3.03;1.87;;;10.70;1.00;;;;;;5104168;28;20443;-65
2022/02/09 07:20:27;;;;;;;2.47;2.13;;;;;;;;;;5104501;28;20436;-65
2022/02/09 07:22:56;;;;;;;2.33;2.13;;;10.70;1.00;;;;;;5103170;28;20991;-67
2022/02/09 07:25:30;;;;;;;3.00;2.20;;;10.60;1.00;;;;;;5103914;28;20992;-67
2022/02/09 07:27:56;;;;;;;2.67;1.80;;;;;;;;;;5104343;28;20440;-66
2022/02/09 07:30:25;;;;;;;2.37;2.17;;;10.90;1.00;;;;;;5102860;28;20443;-67
2022/02/09 07:32:55;;;;;;;3.50;2.30;;;10.90;1.00;;;;;;5103401;28;20769;-67
2022/02/09 07:35:22;;;;;;;2.30;2.00;;;10.90;1.00;;;;;;5101915;28;20471;-67
2022/02/09 07:37:48;;;;;;;4.50;1.80;;;;;;;;;;5102198;28;20750;-67
2022/02/09 07:40:14;;;;;;;2.17;1.73;;;10.80;1.00;;;;;;5104557;28;20460;-65
2022/02/09 07:42:46;;;;;;;2.90;1.97;;;10.80;1.00;;;;;;5098469;28;20590;-65
2022/02/09 07:53:02;;;;;;;1.90;1.80;;;10.60;1.00;;;;;;5102829;28;21006;-66
2022/02/09 07:55:27;;;;;;;1.77;1.67;;;10.60;1.00;;;;;;5102619;28;20447;-67
2022/02/09 07:57:55;;;;;;;2.67;2.00;;;;;;;;;;5103508;28;20444;-66
2022/02/09 08:00:21;;;;;;;1.97;1.83;;;;;;;;;;5076572;28;20335;-66
2022/02/09 08:02:52;;;;;;;3.07;1.70;;;;;;;;;;5094330;28;20476;-63
2022/02/09 08:05:18;;;;;;;2.73;2.00;;;10.90;1.00;;;;;;5090732;28;20759;-66
2022/02/09 08:07:43;;;;;;;1.93;1.60;;;10.80;1.00;;;;;;5091201;28;20430;-66
2022/02/09 08:10:17;;;;;;;2.50;2.17;;;10.70;1.00;;;;;;5107309;28;20439;-66
2022/02/09 08:22:55;;;;;;;2.50;2.30;;;;;;;;;;5090692;28;20965;-68
2022/02/09 08:34:37;;;;;;;2.17;2.03;;;10.70;1.00;;;;;;5090114;28;20417;-66
2022/02/09 08:37:04;;;;;;;1.97;1.87;;;10.80;1.00;;;;;;5102854;28;20446;-69
2022/02/09 08:39:29;;;;;;;1.90;1.80;;;10.80;1.00;;;;;;5104775;28;20435;-69
2022/02/09 08:41:55;;;;;;;3.23;2.10;;;;;;;;;;5098803;28;20481;-68
2022/02/09 08:44:21;;;;;;;2.50;1.80;;;10.80;1.00;;;;;;5103032;28;20656;-69
2022/02/09 08:46:48;;;;;;;4.87;2.00;;;10.90;1.00;;;;;;5105481;28;20447;-68
2022/02/09 08:49:14;;;;;;;2.40;2.20;;;10.90;1.00;;;;;;5109028;28;20260;-69
2022/02/09 08:51:41;;;;;;;2.83;2.20;;;11.00;1.00;;;;;;5093879;28;20467;-70
2022/02/09 08:54:08;;;;;;;2.93;2.73;;;;;;;;;;5092781;28;20924;-69
2022/02/09 08:56:38;;;;;;;2.07;1.97;;;;;;;;;;5101437;28;20440;-68
2022/02/09 08:59:04;;;;;;;2.70;2.50;;;10.80;1.00;;;;;;5102685;28;20451;-72
2022/02/09 09:03:58;;;;;;;2.50;2.10;;;;;;;;;;5109008;28;20443;-71
2022/02/09 09:06:26;;;;;;;2.77;2.53;;;10.90;1.00;;;;;;5097296;28;20620;-71
2022/02/09 09:31:09;;;;;;;2.20;1.90;;;11.10;1.00;;;;;;5101335;28;20442;-70
2022/02/09 10:03:52;;;;;;;2.93;2.20;;;;;;;;;;5111698;28;20208;-71
2022/02/09 10:34:47;;;;;;;1.93;1.83;;;11.50;1.00;;;;;;5100874;28;20514;-71
2022/02/09 10:37:13;;;;;;;2.90;2.10;;;;;;;;;;5108674;28;20505;-71
2022/02/09 10:39:57;;;;;;;2.70;2.33;;;11.60;1.00;;;;;;5099282;28;20196;-71
2022/02/09 10:42:41;;;;;;;2.87;2.53;;;11.70;1.00;;;;;;5097463;28;20495;-71
2022/02/09 10:45:28;;;;;;;4.10;1.83;;;11.70;1.00;;;;;;5096370;28;20770;-71
2022/02/09 10:47:53;;;;;;;2.63;2.43;;;11.60;1.00;;;;;;5104136;28;20963;-66
2022/02/09 10:50:27;;;;;;;2.30;2.10;;;11.50;1.00;;;;;;5102677;28;20444;-70
2022/02/09 10:52:54;;;;;;;2.10;1.90;;;11.50;1.00;;;;;;5097248;28;20559;-71
2022/02/09 10:55:30;;;;;;;1.90;1.80;;;11.60;1.00;;;;;;5109139;28;20609;-70
2022/02/09 10:57:56;;;;;;;2.80;2.20;;;11.70;1.00;;;;;;5097612;28;20415;-67
2022/02/09 11:00:23;;;;;;;2.10;1.90;;;11.70;1.00;;;;;;5076413;28;20426;-69
2022/02/09 11:02:51;;;;;;;1.83;1.73;;;11.60;1.00;;;;;;5094128;28;20199;-69
2022/02/09 11:05:19;;;;;;;2.67;2.17;;;11.60;1.00;;;;;;5096444;28;20415;-68
2022/02/09 11:07:47;;;;;;;3.07;2.13;;;11.50;1.00;;;;;;5104753;28;20430;-68
2022/02/09 11:10:13;;;;;;;1.90;1.80;;;11.60;1.00;;;;;;5098513;28;20749;-69
2022/02/09 11:12:41;;;;;;;3.60;2.30;;;11.60;1.00;;;;;;5096121;28;20444;-69
2022/02/09 11:15:07;;;;;;;2.97;2.60;;;11.60;1.00;;;;;;5091757;28;20437;-69
2022/02/09 11:17:33;;;;;;;3.20;2.30;;;11.60;1.00;;;;;;5095174;28;22138;-69
2022/02/09 11:19:59;;;;;;;2.50;2.13;;;;;;;;;;5100052;28;20445;-70
2022/02/09 11:22:40;;;;;;;3.57;2.10;;;11.50;1.00;;;;;;5093888;28;20478;-70
2022/02/09 11:25:28;;;;;;;3.07;2.77;;;11.50;1.00;;;;;;5102100;28;20427;-70
2022/02/09 11:28:22;;;;;;;2.90;2.30;;;11.60;1.00;;;;;;5094623;28;20441;-67
2022/02/09 11:31:16;;;;;;;2.00;1.90;;;11.60;1.00;;;;;;5104991;28;20480;-68
2022/02/09 11:33:57;;;;;;;3.43;2.10;;;11.70;1.00;;;;;;5098290;28;20463;-66
2022/02/09 11:36:33;;;;;;;2.30;2.10;;;11.80;1.00;;;;;;5091889;28;20400;-67
2022/02/09 11:41:51;;;;;;;2.50;2.30;;;11.70;1.00;;;;;;5106116;28;20463;-68
2022/02/09 11:44:46;;;;;;;3.03;2.73;;;11.80;1.00;;;;;;5106177;28;20436;-67
2022/02/09 11:47:31;;;;;;;2.50;2.30;;;11.90;1.00;;;;;;5105579;28;20453;-67
2022/02/09 11:55:59;;;;;;;2.77;2.57;;;11.80;1.00;;;;;;5103849;28;20422;-66
2022/02/09 11:58:39;;;;;;;3.03;2.47;;;11.80;1.00;;;;;;5092108;28;20414;-66
2022/02/09 12:01:34;;;;;;;2.20;2.00;;;12.00;1.00;;;;;;5099559;28;20486;-65
2022/02/09 12:09:41;;;;;;;2.20;1.97;;;12.00;1.00;;;;;;5100328;28;20417;-67
2022/02/09 12:12:12;;;;;;;2.70;2.50;;;12.00;1.00;;;;;;5101392;28;20429;-67
2022/02/09 12:17:49;;;;;;;2.57;2.37;;;11.80;1.00;;;;;;5098132;28;20462;-67
2022/02/09 12:20:28;;;;;;;2.70;2.50;;;11.90;1.00;;;;;;5108596;28;20447;-67
2022/02/09 12:23:07;;;;;;;2.27;2.07;;;11.70;1.00;;;;;;5075704;28;20763;-66
2022/02/09 12:25:47;;;;;;;2.40;2.20;;;11.60;1.00;;;;;;5100089;28;20448;-68
2022/02/09 12:28:18;;;;;;;3.30;2.13;;;11.70;1.00;;;;;;5102610;28;20464;-68
2022/02/09 12:30:45;;;;;;;2.50;2.17;;;11.80;1.00;;;;;;5103122;28;20452;-68
2022/02/09 12:33:21;;;;;;;2.30;2.10;;;11.70;1.00;;;;;;5097566;28;21014;-68
2022/02/09 12:35:47;;;;;;;2.23;2.10;;;11.70;1.00;;;;;;5103100;28;20472;-67
2022/02/09 12:38:12;;;;;;;2.20;2.03;;;11.80;1.00;;;;;;5107653;28;20448;-68
2022/02/09 12:40:38;;;;;;;2.63;2.30;;;11.90;1.00;;;;;;5096463;28;21066;-68
2022/02/09 12:43:06;;;;;;;2.80;2.00;;;;;;;;;;5108364;28;20198;-67
2022/02/09 12:45:35;;;;;;;2.50;2.30;;;;;;;;;;5096628;28;20432;-68
2022/02/09 12:48:03;;;;;;;2.10;1.90;;;12.30;1.00;;;;;;5102888;28;20433;-67
2022/02/09 12:50:34;;;;;;;2.60;2.40;;;11.70;1.00;;;;;;5074559;28;20444;-68
2022/02/09 12:53:02;;;;;;;2.87;2.37;;;;;;;;;;5106852;28;20541;-68
2022/02/09 12:55:30;;;;;;;2.70;2.10;;;11.80;1.00;;;;;;5101899;28;20449;-68
2022/02/09 12:57:58;;;;;;;2.33;2.20;;;11.80;1.00;;;;;;5082366;28;20430;-70
2022/02/09 13:00:32;;;;;;;3.87;2.23;;;11.90;1.00;;;;;;5108523;28;20436;-69
2022/02/09 13:03:04;;;;;;;3.00;2.60;;;11.90;1.00;;;;;;5078423;28;20470;-69
2022/02/09 13:05:31;;;;;;;3.10;2.60;;;11.90;1.00;;;;;;5094310;28;20494;-69
2022/02/09 13:08:02;;;;;;;2.30;1.97;;;12.00;1.00;;;;;;5097912;28;20502;-69
2022/02/09 13:10:33;;;;;;;4.63;2.20;;;11.90;1.00;;;;;;5089756;28;20454;-70
2022/02/09 13:13:27;;;;;;;4.37;2.30;;;11.80;1.00;;;;;;5081108;28;20454;-68
2022/02/09 13:16:09;;;;;;;4.63;2.40;;;11.80;1.00;;;;;;5096146;28;20516;-69
2022/02/09 14:18:49;;;;;;;4.17;2.80;;;11.70;1.00;;;;;;5101584;28;20189;-70
2022/02/09 14:54:06;;;;;;;4.27;3.23;;;11.80;1.00;;;;;;5105826;28;20193;-70
2022/02/09 14:57:10;;;;;;;4.00;3.10;;;11.80;1.00;;;;;;5097899;28;20539;-71
2022/02/09 14:59:44;;;;;;;3.90;3.30;;;11.80;1.00;;;;;;5103918;28;20730;-71
2022/02/09 15:02:15;;;;;;;3.10;2.70;;;11.80;1.00;;;;;;5101263;28;20488;-70
2022/02/09 15:07:36;;;;;;;4.37;2.80;;;11.80;1.00;;;;;;5099822;28;20757;-71
2022/02/09 15:10:11;;;;;;;3.57;3.27;;;11.70;1.00;;;;;;5103774;28;20463;-71
2022/02/09 15:13:01;;;;;;;3.17;2.53;;;11.70;1.00;;;;;;5099471;28;20460;-71
2022/02/09 15:15:36;;;;;;;3.10;2.77;;;11.60;1.00;;;;;;5111286;28;20431;-70
2022/02/09 15:23:18;;;;;;;3.50;3.20;;;11.50;1.00;;;;;;5099823;28;20598;-70
2022/02/09 15:25:44;;;;;;;3.40;2.50;;;;;;;;;;5092836;28;20771;-70
2022/02/09 15:28:10;;;;;;;3.67;2.60;;;11.60;1.00;;;;;;5092341;28;20440;-71
2022/02/09 15:30:46;;;;;;;3.43;3.00;;;11.60;1.00;;;;;;5092302;28;20433;-71
2022/02/09 15:33:13;;;;;;;2.73;2.50;;;11.60;1.00;;;;;;5094771;28;20476;-71
2022/02/09 15:35:40;;;;;;;3.30;2.70;;;11.70;1.00;;;;;;5105128;28;20445;-71
2022/02/09 15:38:17;;;;;;;3.23;2.90;;;11.60;1.00;;;;;;5099006;28;20449;-62
2022/02/09 15:57:04;;;;;;;2.60;2.40;;;11.60;1.00;;;;;;5098645;28;20486;-68
2022/02/09 16:24:16;;;;;;;3.93;3.63;;;11.50;1.00;;;;;;5097478;28;20452;-69
2022/02/09 16:46:12;;;;;;;3.40;3.10;;;;;;;;;;5104597;28;20441;-69
2022/02/09 16:48:44;;;;;;;3.80;2.90;;;11.40;1.00;;;;;;5104878;28;21244;-69
2022/02/09 16:51:15;;;;;;;4.63;3.37;;;;;;;;;;5103224;28;21212;-69
2022/02/09 16:53:50;;;;;;;3.13;2.83;;;11.70;1.00;;;;;;5104031;28;20480;-70
2022/02/09 16:56:42;;;;;;;3.10;2.80;;;11.50;1.00;;;;;;5103662;28;20527;-70
2022/02/09 17:21:04;;;;;;;6.70;3.80;;;;;;;;;;5101675;28;20442;-69
2022/02/09 17:23:30;;;;;;;4.17;2.80;;;;;;;;;;5107438;28;20463;-68
2022/02/09 17:25:56;;;;;;;5.20;3.67;;;;;;;;;;5096910;28;20412;-69
2022/02/09 17:28:22;;;;;;;3.10;2.80;;;;;;;;;;5075009;28;20445;-68
2022/02/09 17:33:50;;;;;;;4.10;2.93;;;;;;;;;;5101692;28;20503;-69
2022/02/09 17:36:26;;;;;;;3.33;3.03;;;;;;;;;;5100014;28;20808;-68
2022/02/09 17:57:37;;;;;;;2.97;2.70;;;11.40;1.00;;;;;;5104468;28;20761;-68
2022/02/09 18:00:16;;;;;;;3.70;2.60;;;11.50;1.00;;;;;;5106274;28;20439;-71
2022/02/09 18:02:48;;;;;;;3.60;2.90;;;11.50;1.00;;;;;;5098410;28;20460;-69
2022/02/09 18:05:20;;;;;;;2.67;2.47;;;11.40;1.00;;;;;;5084278;28;20806;-68
2022/02/09 18:07:51;;;;;;;3.50;3.20;;;11.50;1.00;;;;;;5105313;28;20431;-67
2022/02/09 18:34:44;;;;;;;3.30;3.00;;;11.20;1.00;;;;;;5100900;28;20447;-69
2022/02/09 18:45:33;;;;;;;2.93;2.63;;;11.40;1.00;;;;;;5094243;28;20819;-69
2022/02/09 19:01:56;;;;;;;3.90;3.50;;;11.40;1.00;;;;;;5096365;28;20421;-68
2022/02/09 19:04:26;;;;;;;3.33;3.03;;;;;;;;;;5098934;28;20444;-69
2022/02/09 19:17:24;;;;;;;3.80;3.00;;;11.50;1.00;;;;;;5105742;28;20419;-69
2022/02/09 19:30:48;;;;;;;3.17;2.87;;;;;;;;;;5103686;28;20408;-68
2022/02/09 19:47:02;;;;;;;3.37;3.07;;;11.60;1.00;;;;;;5100357;28;20498;-69
2022/02/09 19:57:24;;;;;;;2.70;2.50;;;11.60;1.00;;;;;;5096114;28;20555;-70
2022/02/09 19:59:50;;;;;;;2.87;2.67;;;11.60;1.00;;;;;;5100557;28;20535;-71
2022/02/09 20:02:18;;;;;;;3.10;2.80;;;11.70;1.00;;;;;;5098777;28;20446;-70
2022/02/09 20:04:43;;;;;;;3.80;3.10;;;11.60;1.00;;;;;;5100915;28;20786;-67
2022/02/09 20:07:09;;;;;;;3.53;3.23;;;11.60;1.00;;;;;;5100716;28;20432;-69
2022/02/09 20:09:35;;;;;;;3.50;2.73;;;;;;;;;;5104007;28;20295;-68
2022/02/09 20:12:01;;;;;;;5.60;3.30;;;;;;;;;;5101571;28;20177;-69
2022/02/09 20:14:28;;;;;;;3.10;2.70;;;11.50;1.00;;;;;;5107098;28;20896;-69
2022/02/09 20:16:54;;;;;;;2.73;2.53;;;;;;;;;;5099666;28;20440;-69
2022/02/09 20:19:19;;;;;;;4.03;2.50;;;11.60;1.00;;;;;;5102381;28;20440;-68
2022/02/09 20:21:46;;;;;;;2.90;2.67;;;;;;;;;;5104901;28;20822;-69
2022/02/09 20:24:13;;;;;;;2.70;2.50;;;11.60;1.00;;;;;;5094797;28;20299;-67
2022/02/09 20:26:39;;;;;;;4.73;2.70;;;11.60;1.00;;;;;;5097711;28;20547;-68
2022/02/09 20:29:13;;;;;;;3.20;2.90;;;11.60;1.00;;;;;;5100047;28;21002;-67
2022/02/09 20:32:09;;;;;;;3.10;2.67;;;11.60;1.00;;;;;;5101434;28;20890;-68
2022/02/09 20:34:43;;;;;;;3.23;2.50;;;11.60;1.00;;;;;;5102608;28;20440;-68
2022/02/09 20:37:10;;;;;;;3.00;2.73;;;11.60;1.00;;;;;;5098653;28;20907;-68
2022/02/09 20:39:42;;;;;;;4.00;3.20;;;11.60;1.00;;;;;;5103169;28;20495;-69
2022/02/09 20:42:14;;;;;;;4.20;3.80;;;11.50;1.00;;;;;;5105256;28;20455;-69
2022/02/09 20:44:46;;;;;;;4.07;3.13;;;11.50;1.00;;;;;;5102282;28;20433;-69
2022/02/09 20:47:14;;;;;;;4.40;3.30;;;11.60;1.00;;;;;;5104058;28;20721;-69
2022/02/09 20:49:40;;;;;;;3.50;3.20;;;11.50;1.00;;;;;;5100450;28;20481;-69
2022/02/09 20:52:06;;;;;;;3.70;2.80;;;;;;;;;;5102063;28;20559;-69
2022/02/09 20:54:33;;;;;;;3.20;2.90;;;11.60;1.00;;;;;;5101253;28;20274;-68
2022/02/09 20:56:58;;;;;;;3.20;2.90;;;;;;;;;;5097185;28;20458;-68
2022/02/09 20:59:26;;;;;;;3.30;2.73;;;11.30;1.00;;;;;;5103929;28;20452;-67
2022/02/09 21:02:00;;;;;;;3.17;2.63;;;11.50;1.00;;;;;;5088514;28;20448;-68
2022/02/09 21:04:28;;;;;;;3.10;2.63;;;11.60;1.00;;;;;;5102320;28;20406;-70
2022/02/09 21:09:51;;;;;;;4.13;2.70;;;11.50;1.00;;;;;;5100832;28;20436;-71
2022/02/09 21:12:47;;;;;;;5.60;3.50;;;11.50;1.00;;;;;;5092736;28;20769;-71
2022/02/09 21:15:32;;;;;;;4.40;2.50;;;11.60;1.00;;;;;;5098388;28;20475;-70
2022/02/09 21:18:24;;;;;;;2.73;2.50;;;11.60;1.00;;;;;;5099830;28;20438;-71
2022/02/09 21:30:05;;;;;;;4.10;2.87;;;11.60;1.00;;;;;;5092610;28;20925;-67
2022/02/09 21:44:23;;;;;;;3.13;2.83;;;11.40;1.00;;;;;;5099902;28;20434;-67
2022/02/09 21:54:00;;;;;;;4.07;3.00;;;11.40;1.00;;;;;;5097367;28;20532;-68
2022/02/09 21:56:35;;;;;;;4.27;2.83;;;11.50;1.00;;;;;;5104646;28;20992;-67
2022/02/09 22:16:17;;;;;;;3.23;2.93;;;11.50;1.00;;;;;;5098035;28;20482;-68
2022/02/09 22:21:15;;;;;;;2.70;2.50;;;11.50;1.00;;;;;;5109083;28;20776;-69
2022/02/09 22:24:30;;;;;;;4.10;2.63;;;11.40;1.00;;;;;;5108889;28;20446;-68
2022/02/09 22:47:01;;;;;;;3.27;2.97;;;;;;;;;;5104898;28;21012;-70
2022/02/09 22:56:42;;;;;;;5.70;3.43;;;11.70;1.00;;;;;;5105674;28;20504;-69
2022/02/09 22:59:16;;;;;;;2.83;2.60;;;12.00;1.00;;;;;;5083079;28;20452;-70
2022/02/09 23:06:54;;;;;;;3.37;3.07;;;11.60;1.00;;;;;;5107401;28;20186;-70
2022/02/09 23:28:02;;;;;;;2.70;2.13;;;11.50;1.00;;;;;;5097323;28;20578;-69
2022/02/09 23:55:59;;;;;;;2.33;2.13;;;11.40;1.00;;;;;;5041231;28;20402;-68
